Terminal Aerodrome Forecast
Issued by NWS Medford, OR

Home | Current Version | Previous Version | Text Only | Print | Product List | Glossary On
Versions: 1 2 3 4 5 6 7 8 9 10 11 12
000
FTUS46 KMFR 301700
TAFMFR
TAF
KMFR 301737Z 3018/3118 31004KT P6SM SCT120 BKN200
     FM302200 31013G20KT P6SM BKN200
     FM310300 33006KT P6SM FEW070
     FM310800 VRB02KT P6SM FEW035=

USA.gov is the U.S. government's official web portal to all federal, state and local government web resources and services.